createdAt,value
2022-12-22T00:00:05.888Z,1.33
2022-12-22T00:04:14.890Z,1.34
2022-12-22T00:08:15.418Z,1.36
2022-12-22T00:12:15.548Z,1.37
2022-12-22T00:16:15.609Z,1.36
2022-12-22T00:19:56.669Z,1.37
2022-12-22T00:23:57.261Z,1.40
2022-12-22T00:27:57.324Z,1.41
2022-12-22T00:31:40.444Z,1.40
2022-12-22T00:35:43.480Z,1.35
2022-12-22T00:39:43.687Z,1.33
2022-12-22T00:43:24.634Z,1.37
2022-12-22T00:47:06.727Z,1.37
2022-12-22T00:50:53.377Z,1.37
2022-12-22T00:54:37.816Z,1.35
2022-12-22T00:58:31.580Z,1.34
2022-12-22T01:02:13.228Z,1.35
2022-12-22T01:05:55.362Z,1.36
2022-12-22T01:09:55.949Z,1.37
2022-12-22T01:13:36.792Z,1.42
2022-12-22T01:17:18.475Z,1.42
2022-12-22T01:21:00.290Z,1.40
2022-12-22T01:24:41.683Z,1.39
2022-12-22T01:28:42.681Z,1.39
2022-12-22T01:32:42.473Z,1.40
2022-12-22T01:36:42.342Z,1.39
2022-12-22T01:40:24.819Z,1.36
2022-12-22T01:44:06.792Z,1.36
2022-12-22T01:47:48.379Z,1.40
2022-12-22T01:51:34.270Z,1.45
2022-12-22T01:55:22.276Z,1.47
2022-12-22T01:59:10.246Z,1.42
2022-12-22T02:02:53.049Z,1.36
2022-12-22T02:07:00.444Z,1.31
2022-12-22T02:11:20.002Z,1.30
2022-12-22T02:15:30.066Z,1.33
2022-12-22T02:19:38.471Z,1.32
2022-12-22T02:23:43.065Z,1.32
2022-12-22T02:27:46.470Z,1.29
2022-12-22T02:31:53.363Z,1.28
2022-12-22T02:35:35.831Z,1.29
2022-12-22T02:40:20.138Z,1.32
2022-12-22T02:44:33.923Z,1.40
2022-12-22T02:48:26.016Z,1.44
2022-12-22T02:52:17.326Z,1.41
2022-12-22T02:56:21.464Z,1.41
2022-12-22T03:00:03.455Z,1.42
2022-12-22T03:04:05.413Z,1.43
2022-12-22T03:07:46.976Z,1.48
2022-12-22T03:11:47.678Z,1.47
2022-12-22T03:15:30.382Z,1.44
2022-12-22T03:19:12.263Z,1.38
2022-12-22T03:22:53.772Z,1.36
2022-12-22T03:26:17.028Z,1.35
2022-12-22T03:29:54.713Z,1.34
2022-12-22T03:33:51.163Z,1.35
2022-12-22T03:37:13.363Z,1.32
2022-12-22T03:40:51.879Z,1.34
2022-12-22T03:45:06.313Z,1.36
2022-12-22T03:49:06.044Z,1.39
2022-12-22T03:52:28.481Z,1.39
2022-12-22T03:56:08.107Z,1.39
2022-12-22T04:00:03.678Z,1.36
2022-12-22T04:03:33.974Z,1.31
2022-12-22T04:07:11.722Z,1.27
2022-12-22T04:11:34.523Z,1.25
2022-12-22T04:14:56.746Z,1.23
2022-12-22T04:18:34.486Z,1.23
2022-12-22T04:22:12.200Z,1.22
2022-12-22T04:25:49.830Z,1.20
2022-12-22T04:29:27.307Z,1.22
2022-12-22T04:33:05.096Z,1.23
2022-12-22T04:36:42.737Z,1.22
2022-12-22T04:40:24.312Z,1.21
2022-12-22T04:43:58.008Z,1.18
2022-12-22T04:47:54.827Z,1.17
2022-12-22T04:51:16.702Z,1.21
2022-12-22T04:54:54.582Z,1.22
2022-12-22T04:58:51.089Z,1.23
2022-12-22T05:02:13.794Z,1.21
2022-12-22T05:05:51.029Z,1.22
2022-12-22T05:09:28.916Z,1.22
2022-12-22T05:13:25.179Z,1.17
2022-12-22T05:16:47.518Z,1.15
2022-12-22T05:20:26.137Z,1.15
2022-12-22T05:24:21.740Z,1.17
2022-12-22T05:27:44.890Z,1.21
2022-12-22T05:31:24.321Z,1.21
2022-12-22T05:35:18.459Z,1.22
2022-12-22T05:38:41.199Z,1.20
2022-12-22T05:42:35.860Z,1.21
2022-12-22T05:46:05.470Z,1.23
2022-12-22T05:49:36.649Z,1.28
2022-12-22T05:53:14.361Z,1.31
2022-12-22T05:57:10.675Z,1.35
2022-12-22T06:00:32.983Z,1.33
2022-12-22T06:04:10.706Z,1.33
2022-12-22T06:07:48.546Z,1.32
2022-12-22T06:11:44.964Z,1.34
2022-12-22T06:15:09.148Z,1.36
2022-12-22T06:18:45.009Z,1.38
2022-12-22T06:22:22.755Z,1.38
2022-12-22T06:26:19.532Z,1.36
2022-12-22T06:29:41.988Z,1.32
2022-12-22T06:33:20.130Z,1.32
2022-12-22T06:36:57.538Z,1.32
2022-12-22T06:40:35.030Z,1.34
2022-12-22T06:44:12.934Z,1.39
2022-12-22T06:47:50.693Z,1.44
2022-12-22T06:51:28.394Z,1.44
2022-12-22T06:55:06.348Z,1.43
2022-12-22T06:58:43.673Z,1.42
2022-12-22T07:02:21.217Z,1.44
2022-12-22T07:05:58.935Z,1.47
2022-12-22T07:09:36.602Z,1.51
2022-12-22T07:13:19.909Z,1.55
2022-12-22T07:16:51.923Z,1.58
2022-12-22T07:20:29.465Z,1.63
2022-12-22T07:24:07.416Z,1.69
2022-12-22T07:27:44.759Z,1.74
2022-12-22T07:31:41.310Z,1.80
2022-12-22T07:35:05.976Z,1.83
2022-12-22T07:38:44.460Z,1.90
2022-12-22T07:42:37.649Z,1.97
2022-12-22T07:46:00.599Z,2.07
2022-12-22T07:50:11.173Z,2.14
2022-12-22T07:53:34.998Z,2.13
2022-12-22T07:57:12.608Z,2.13
2022-12-22T08:00:49.542Z,2.14
2022-12-22T08:04:27.476Z,2.17
2022-12-22T08:08:05.207Z,2.23
2022-12-22T08:12:01.763Z,2.30
2022-12-22T08:15:23.528Z,2.36
2022-12-22T08:19:02.306Z,2.39
2022-12-22T08:22:57.885Z,2.42
2022-12-22T08:26:25.360Z,2.44
2022-12-22T08:29:59.656Z,2.49
2022-12-22T08:33:35.557Z,2.56
2022-12-22T08:37:16.602Z,2.59
2022-12-22T08:40:51.368Z,2.69
2022-12-22T08:44:30.384Z,2.79
2022-12-22T08:48:25.166Z,2.83
2022-12-22T08:51:48.014Z,2.85
2022-12-22T08:55:25.346Z,2.85
2022-12-22T08:59:05.492Z,2.90
2022-12-22T09:03:00.552Z,2.92
2022-12-22T09:06:27.558Z,2.91
2022-12-22T09:10:00.579Z,2.93
2022-12-22T09:14:00.420Z,2.98
2022-12-22T09:17:22.668Z,3.08
2022-12-22T09:21:19.558Z,3.17
2022-12-22T09:24:42.218Z,3.24
2022-12-22T09:28:40.101Z,3.31
2022-12-22T09:32:05.066Z,3.37
2022-12-22T09:35:42.389Z,3.38
2022-12-22T09:39:26.790Z,3.43
2022-12-22T09:43:19.999Z,3.47
2022-12-22T09:46:43.244Z,3.50
2022-12-22T09:50:41.377Z,3.51
2022-12-22T09:54:04.327Z,3.55
2022-12-22T09:58:00.727Z,3.67
2022-12-22T10:01:25.932Z,3.77
2022-12-22T10:05:37.730Z,3.87
2022-12-22T10:09:48.112Z,4.05
2022-12-22T10:13:06.328Z,4.16
2022-12-22T10:17:28.522Z,4.29
2022-12-22T10:21:12.320Z,4.33
2022-12-22T10:24:36.282Z,4.32
2022-12-22T10:28:26.922Z,4.36
2022-12-22T10:32:02.208Z,4.42
2022-12-22T10:35:48.012Z,4.50
2022-12-22T10:39:19.160Z,4.61
2022-12-22T10:42:54.090Z,4.70
2022-12-22T10:47:00.834Z,4.79
2022-12-22T10:50:46.491Z,4.89
2022-12-22T10:54:09.605Z,4.99
2022-12-22T10:58:08.941Z,5.08
2022-12-22T11:01:36.566Z,5.15
2022-12-22T11:05:31.845Z,5.23
2022-12-22T11:08:58.173Z,5.25
2022-12-22T11:12:55.680Z,5.30
2022-12-22T11:17:01.801Z,5.41
2022-12-22T11:20:45.899Z,5.58
2022-12-22T11:24:12.278Z,5.63
2022-12-22T11:28:15.107Z,5.64
2022-12-22T11:31:57.129Z,5.66
2022-12-22T11:36:00.245Z,5.80
2022-12-22T11:39:59.085Z,5.81
2022-12-22T11:44:11.087Z,5.86
2022-12-22T11:48:14.310Z,5.91
2022-12-22T11:52:07.241Z,5.96
2022-12-22T11:55:43.457Z,5.95
2022-12-22T11:59:47.683Z,6.12
2022-12-22T12:04:03.029Z,6.29
2022-12-22T12:07:41.316Z,6.39
2022-12-22T12:11:18.238Z,6.50
2022-12-22T12:15:04.146Z,6.63
2022-12-22T12:18:46.776Z,6.38
2022-12-22T12:22:19.639Z,6.06
2022-12-22T12:26:24.722Z,6.58
2022-12-22T12:34:04.371Z,6.80
2022-12-22T12:38:32.258Z,6.40
2022-12-22T12:42:36.834Z,6.10
2022-12-22T12:46:41.416Z,5.93
2022-12-22T12:50:32.278Z,5.84
2022-12-22T12:54:23.776Z,5.87
2022-12-22T12:57:49.093Z,6.69
2022-12-22T13:01:55.125Z,9.23
2022-12-22T13:05:53.505Z,9.45
2022-12-22T13:09:51.413Z,8.58
2022-12-22T13:13:39.804Z,8.02
2022-12-22T13:17:40.813Z,7.40
2022-12-22T13:25:16.051Z,6.42
2022-12-22T13:28:54.520Z,6.10
2022-12-22T13:32:28.675Z,5.90
2022-12-22T13:36:01.336Z,5.73
2022-12-22T13:40:11.908Z,5.61
2022-12-22T13:43:33.960Z,5.48
2022-12-22T13:47:31.445Z,5.42
2022-12-22T13:50:57.806Z,5.36
2022-12-22T13:54:37.487Z,5.26
2022-12-22T13:58:24.796Z,5.17
2022-12-22T14:02:10.687Z,5.10
2022-12-22T14:05:33.136Z,5.02
2022-12-22T14:09:29.961Z,4.97
2022-12-22T14:12:52.393Z,4.93
2022-12-22T14:16:51.272Z,4.89
2022-12-22T14:20:36.604Z,4.80
2022-12-22T14:23:59.307Z,4.75
2022-12-22T14:27:46.596Z,4.73
2022-12-22T14:31:14.516Z,4.68
2022-12-22T14:34:54.599Z,4.66
2022-12-22T14:38:29.650Z,4.60
2022-12-22T14:42:14.467Z,4.55
2022-12-22T14:46:08.446Z,4.53
2022-12-22T14:49:57.759Z,4.46
2022-12-22T14:53:27.119Z,4.40
2022-12-22T14:57:24.755Z,4.34
2022-12-22T15:00:49.805Z,4.31
2022-12-22T15:04:46.267Z,4.31
2022-12-22T15:08:42.687Z,4.27
2022-12-22T15:12:10.908Z,4.22
2022-12-22T15:15:44.028Z,4.18
2022-12-22T15:19:38.890Z,4.16
2022-12-22T15:23:20.319Z,4.11
2022-12-22T15:27:01.539Z,4.11
2022-12-22T15:30:29.856Z,4.10
2022-12-22T15:34:04.463Z,4.07
2022-12-22T15:37:59.064Z,4.07
2022-12-22T15:41:44.125Z,4.05
2022-12-22T15:45:08.665Z,4.05
2022-12-22T15:48:46.026Z,4.03
2022-12-22T15:52:22.082Z,3.99
2022-12-22T15:55:59.552Z,3.93
2022-12-22T15:59:37.214Z,3.89
2022-12-22T16:03:33.726Z,3.86
2022-12-22T16:06:58.703Z,3.86
2022-12-22T16:10:34.835Z,3.84
2022-12-22T16:14:13.864Z,3.85
2022-12-22T16:17:52.098Z,3.82
2022-12-22T16:21:48.582Z,3.83
2022-12-22T16:25:21.356Z,3.83
2022-12-22T16:28:49.312Z,3.85
2022-12-22T16:32:45.445Z,3.85
2022-12-22T16:36:08.753Z,3.84
2022-12-22T16:39:46.399Z,3.89
2022-12-22T16:47:35.442Z,3.97
2022-12-22T16:50:58.950Z,4.01
2022-12-22T16:54:35.183Z,4.01
2022-12-22T16:58:14.098Z,4.04
2022-12-22T17:01:54.766Z,4.09
2022-12-22T17:05:50.872Z,4.11
2022-12-22T17:09:19.145Z,4.10
2022-12-22T17:12:54.537Z,4.10
2022-12-22T17:16:51.213Z,4.12
2022-12-22T17:20:18.210Z,4.16
2022-12-22T17:23:54.924Z,4.14
2022-12-22T17:27:31.704Z,4.14
2022-12-22T17:31:07.083Z,4.12
2022-12-22T17:35:03.781Z,4.13
2022-12-22T17:38:45.230Z,4.16
2022-12-22T17:42:26.839Z,4.16
2022-12-22T17:46:17.727Z,4.15
2022-12-22T17:49:41.113Z,4.17
2022-12-22T17:53:20.628Z,4.20
2022-12-22T17:57:01.919Z,4.20
2022-12-22T18:00:52.264Z,4.25
2022-12-22T18:04:33.441Z,4.25
2022-12-22T18:08:20.277Z,4.24
2022-12-22T18:12:03.137Z,4.23
2022-12-22T18:15:27.363Z,4.22
2022-12-22T18:19:04.310Z,4.21
2022-12-22T18:22:41.612Z,4.20
2022-12-22T18:26:27.316Z,4.19
2022-12-22T18:30:23.884Z,4.18
2022-12-22T18:33:49.147Z,4.14
2022-12-22T18:37:24.095Z,4.14
2022-12-22T18:41:02.336Z,4.13
2022-12-22T18:44:39.507Z,4.13
2022-12-22T18:48:36.140Z,4.11
2022-12-22T18:51:58.506Z,4.13
2022-12-22T18:55:36.576Z,4.15
2022-12-22T18:59:32.959Z,4.15
2022-12-22T19:02:59.461Z,4.13
2022-12-22T19:06:33.156Z,4.14
2022-12-22T19:10:16.265Z,4.12
2022-12-22T19:13:51.333Z,4.16
2022-12-22T19:17:45.193Z,4.18
2022-12-22T19:21:12.473Z,4.22
2022-12-22T19:25:04.186Z,4.23
2022-12-22T19:28:33.521Z,4.24
2022-12-22T19:32:04.398Z,4.23
2022-12-22T19:36:00.574Z,4.24
2022-12-22T19:39:25.706Z,4.23
2022-12-22T19:43:00.183Z,4.19
2022-12-22T19:46:38.072Z,4.17
2022-12-22T19:50:24.778Z,4.15
2022-12-22T19:53:54.356Z,4.12
2022-12-22T19:57:30.949Z,4.09
2022-12-22T20:01:16.423Z,4.10
2022-12-22T20:04:46.668Z,4.14
2022-12-22T20:08:44.121Z,4.11
2022-12-22T20:12:10.167Z,4.10
2022-12-22T20:16:03.577Z,4.08
2022-12-22T20:19:26.315Z,4.07
2022-12-22T20:23:14.702Z,4.08
2022-12-22T20:27:00.276Z,4.07
2022-12-22T20:30:25.356Z,4.06
2022-12-22T20:34:19.156Z,4.06
2022-12-22T20:37:43.585Z,4.03
2022-12-22T20:41:38.082Z,4.03
2022-12-22T20:45:26.358Z,4.05
2022-12-22T20:49:13.891Z,4.06
2022-12-22T20:52:58.106Z,4.03
2022-12-22T20:56:19.924Z,4.01
2022-12-22T20:59:58.049Z,4.04
2022-12-22T21:03:36.091Z,4.00
2022-12-22T21:07:13.632Z,4.03
2022-12-22T21:10:52.183Z,4.01
2022-12-22T21:14:28.674Z,4.00
2022-12-22T21:18:21.424Z,3.98
2022-12-22T21:21:44.863Z,3.99
2022-12-22T21:25:46.741Z,3.96
2022-12-22T21:29:29.247Z,3.97
2022-12-22T21:33:12.550Z,3.94
2022-12-22T21:36:35.388Z,3.96
2022-12-22T21:40:21.664Z,3.97
2022-12-22T21:44:12.005Z,3.96
2022-12-22T21:47:34.973Z,3.92
2022-12-22T21:51:13.261Z,3.89
2022-12-22T21:55:10.816Z,3.89
2022-12-22T21:58:57.653Z,3.92
2022-12-22T22:02:24.219Z,3.91
2022-12-22T22:06:01.971Z,3.90
2022-12-22T22:09:42.002Z,3.91
2022-12-22T22:13:17.661Z,3.91
2022-12-22T22:16:55.264Z,3.92
2022-12-22T22:20:33.082Z,3.91
2022-12-22T22:24:30.285Z,3.89
2022-12-22T22:27:59.783Z,3.87
2022-12-22T22:31:52.614Z,3.84
2022-12-22T22:35:34.690Z,3.81
2022-12-22T22:38:57.743Z,3.82
2022-12-22T22:42:36.359Z,3.77
2022-12-22T22:46:12.811Z,3.71
2022-12-22T22:50:09.870Z,3.70
2022-12-22T22:53:51.047Z,3.70
2022-12-22T22:57:33.041Z,3.69
2022-12-22T23:00:55.357Z,3.66
2022-12-22T23:04:33.164Z,3.60
2022-12-22T23:08:10.597Z,3.58
2022-12-22T23:11:52.288Z,3.55
2022-12-22T23:16:06.577Z,3.53
2022-12-22T23:19:30.316Z,3.47
2022-12-22T23:23:07.687Z,3.43
2022-12-22T23:26:45.593Z,3.40
2022-12-22T23:30:23.208Z,3.39
2022-12-22T23:34:19.922Z,3.46
2022-12-22T23:37:42.337Z,3.47
2022-12-22T23:41:39.255Z,3.46
2022-12-22T23:45:02.517Z,3.45
2022-12-22T23:48:41.158Z,3.44
2022-12-22T23:52:36.081Z,3.40
2022-12-22T23:55:59.379Z,3.41
2022-12-22T23:59:55.734Z,3.42
